createdAt,value
2018-04-10T00:00:29.826Z,9.38
2018-04-10T00:02:59.817Z,10.63
2018-04-10T00:05:28.817Z,9.48
2018-04-10T00:07:56.853Z,9.50
2018-04-10T00:10:26.781Z,9.63
2018-04-10T00:12:56.741Z,9.40
2018-04-10T00:15:25.709Z,8.50
2018-04-10T00:18:06.933Z,9.40
2018-04-10T00:20:34.960Z,8.77
2018-04-10T00:23:04.204Z,8.57
2018-04-10T00:25:32.232Z,8.30
2018-04-10T00:28:08.496Z,9.00
2018-04-10T00:30:37.494Z,7.68
2018-04-10T00:33:06.472Z,8.95
2018-04-10T00:35:37.645Z,8.35
2018-04-10T00:38:14.056Z,8.93
2018-04-10T00:40:43.068Z,8.75
2018-04-10T00:43:11.064Z,9.00
2018-04-10T00:45:40.856Z,8.95
2018-04-10T00:48:12.424Z,8.80
2018-04-10T00:50:40.440Z,8.27
2018-04-10T00:53:22.336Z,8.77
2018-04-10T00:55:50.349Z,9.55
2018-04-10T00:58:18.392Z,10.32
2018-04-10T01:01:03.534Z,10.07
2018-04-10T01:03:31.564Z,10.80
2018-04-10T01:06:00.548Z,9.73
2018-04-10T01:08:37.007Z,9.45
2018-04-10T01:11:07.945Z,9.32
2018-04-10T01:13:37.986Z,10.02
2018-04-10T01:16:14.508Z,11.50
2018-04-10T01:18:44.479Z,10.40
2018-04-10T01:21:21.080Z,10.02
2018-04-10T01:23:50.843Z,11.55
2018-04-10T01:26:21.995Z,10.15
2018-04-10T01:28:50.980Z,10.55
2018-04-10T01:31:25.974Z,9.63
2018-04-10T01:34:00.091Z,9.63
2018-04-10T01:36:28.127Z,9.10
2018-04-10T01:39:08.648Z,10.32
2018-04-10T01:41:36.667Z,9.48
2018-04-10T01:44:06.611Z,9.55
2018-04-10T01:46:35.696Z,9.68
2018-04-10T01:49:03.700Z,8.52
2018-04-10T01:51:33.739Z,9.50
2018-04-10T01:54:03.535Z,9.00
2018-04-10T01:56:32.312Z,10.00
2018-04-10T01:59:00.367Z,10.00
2018-04-10T02:01:29.415Z,10.63
2018-04-10T02:04:04.547Z,11.57
2018-04-10T02:06:37.848Z,12.63
2018-04-10T02:09:06.800Z,10.55
2018-04-10T02:11:53.515Z,11.15
2018-04-10T02:14:21.544Z,12.50
2018-04-10T02:17:07.116Z,13.52
2018-04-10T02:19:37.108Z,14.02
2018-04-10T02:22:05.136Z,14.10
2018-04-10T02:24:34.124Z,16.52
2018-04-10T02:27:04.140Z,16.17
2018-04-10T02:29:32.193Z,13.52
2018-04-10T02:32:00.200Z,11.18
2018-04-10T02:34:30.212Z,10.98
2018-04-10T02:36:59.189Z,11.98
2018-04-10T02:39:31.172Z,12.37
2018-04-10T02:41:59.200Z,10.77
2018-04-10T02:44:27.217Z,12.23
2018-04-10T02:47:00.712Z,10.80
2018-04-10T02:49:35.312Z,11.15
2018-04-10T02:52:04.351Z,12.60
2018-04-10T02:54:33.300Z,10.18
2018-04-10T02:57:02.336Z,11.38
2018-04-10T02:59:31.316Z,10.90
2018-04-10T03:02:18.448Z,12.52
2018-04-10T03:04:46.532Z,11.52
2018-04-10T03:07:14.592Z,10.73
2018-04-10T03:09:46.217Z,11.38
2018-04-10T03:12:24.492Z,11.63
2018-04-10T03:14:53.524Z,11.32
2018-04-10T03:17:23.300Z,10.18
2018-04-10T03:19:52.300Z,10.93
2018-04-10T03:22:21.317Z,12.15
2018-04-10T03:24:49.340Z,13.77
2018-04-10T03:27:19.276Z,13.60
2018-04-10T03:29:54.745Z,14.07
2018-04-10T03:32:23.705Z,14.20
2018-04-10T03:34:51.731Z,13.82
2018-04-10T03:37:22.540Z,13.30
2018-04-10T03:39:51.308Z,12.88
2018-04-10T03:42:19.345Z,11.20
2018-04-10T03:44:48.420Z,12.52
2018-04-10T03:47:16.436Z,13.15
2018-04-10T03:49:44.444Z,13.27
2018-04-10T03:52:13.244Z,12.43
2018-04-10T03:54:43.220Z,13.62
2018-04-10T03:57:14.312Z,12.25
2018-04-10T03:59:48.076Z,12.95
2018-04-10T04:02:19.808Z,12.68
2018-04-10T04:04:47.840Z,11.57
2018-04-10T04:07:21.826Z,12.98
2018-04-10T04:09:54.503Z,14.73
2018-04-10T04:12:26.653Z,13.40
2018-04-10T04:14:54.648Z,14.82
2018-04-10T04:17:34.636Z,13.82
2018-04-10T04:20:16.588Z,17.50
2018-04-10T04:22:47.720Z,17.70
2018-04-10T04:25:17.729Z,16.17
2018-04-10T04:27:46.732Z,17.80
2018-04-10T04:30:33.152Z,17.37
2018-04-10T04:33:05.472Z,19.23
2018-04-10T04:35:35.748Z,17.42
2018-04-10T04:38:07.068Z,19.00
2018-04-10T04:40:37.116Z,18.92
2018-04-10T04:43:15.472Z,19.37
2018-04-10T04:45:45.523Z,20.05
2018-04-10T04:48:14.314Z,19.15
2018-04-10T04:50:46.259Z,16.75
2018-04-10T04:53:20.048Z,18.17
2018-04-10T04:55:48.103Z,18.30
2018-04-10T04:58:31.187Z,19.12
2018-04-10T05:01:11.871Z,19.60
2018-04-10T05:03:40.619Z,17.83
2018-04-10T05:06:10.396Z,18.02
2018-04-10T05:08:39.408Z,15.95
2018-04-10T05:11:11.060Z,14.63
2018-04-10T05:16:36.079Z,15.18
2018-04-10T05:19:08.783Z,17.02
2018-04-10T05:21:58.479Z,19.37
2018-04-10T05:24:27.436Z,17.58
2018-04-10T05:26:58.135Z,20.10
2018-04-10T05:29:36.739Z,18.33
2018-04-10T05:32:24.759Z,20.05
2018-04-10T05:34:59.919Z,18.85
2018-04-10T05:37:28.947Z,18.73
2018-04-10T05:39:57.911Z,18.10
2018-04-10T05:42:27.947Z,20.08
2018-04-10T05:47:54.103Z,20.62
2018-04-10T05:50:32.579Z,20.58
2018-04-10T05:53:00.615Z,18.70
2018-04-10T05:55:29.558Z,20.25
2018-04-10T05:57:58.547Z,19.67
2018-04-10T06:00:28.583Z,21.27
2018-04-10T06:02:58.594Z,21.70
2018-04-10T06:05:35.134Z,20.73
2018-04-10T06:08:03.170Z,21.80
2018-04-10T06:10:31.193Z,19.67
2018-04-10T06:12:59.238Z,19.40
2018-04-10T06:15:33.734Z,19.90
2018-04-10T06:18:02.699Z,19.83
2018-04-10T06:20:33.435Z,19.20
2018-04-10T06:23:04.171Z,19.93
2018-04-10T06:25:32.971Z,22.37
2018-04-10T06:28:01.931Z,20.60
2018-04-10T06:30:35.547Z,19.30
2018-04-10T06:33:09.448Z,20.00
2018-04-10T06:35:43.031Z,20.93
2018-04-10T06:38:16.790Z,20.17
2018-04-10T06:40:44.832Z,20.03
2018-04-10T06:43:14.660Z,19.10
2018-04-10T06:45:43.605Z,20.07
2018-04-10T06:48:11.628Z,19.80
2018-04-10T06:50:39.679Z,20.00
2018-04-10T06:53:08.471Z,20.50
2018-04-10T06:55:39.183Z,18.20
2018-04-10T06:58:07.208Z,15.33
2018-04-10T07:00:36.236Z,15.33
2018-04-10T07:03:07.595Z,17.00
2018-04-10T07:05:36.565Z,15.70
2018-04-10T07:08:04.588Z,15.63
2018-04-10T07:10:33.552Z,16.13
2018-04-10T07:13:03.364Z,15.03
2018-04-10T07:15:31.387Z,16.30
2018-04-10T07:18:00.411Z,14.20
2018-04-10T07:20:29.410Z,14.97
2018-04-10T07:22:57.441Z,14.17
2018-04-10T07:25:25.494Z,15.50
2018-04-10T07:27:53.511Z,14.70
2018-04-10T07:30:23.519Z,14.73
2018-04-10T07:32:51.575Z,13.63
2018-04-10T07:35:19.592Z,14.63
2018-04-10T07:37:52.247Z,13.27
2018-04-10T07:40:20.260Z,11.87
2018-04-10T07:42:48.275Z,13.80
2018-04-10T07:45:17.211Z,13.20
2018-04-10T07:47:48.715Z,13.60
2018-04-10T07:50:17.658Z,14.20
2018-04-10T07:52:45.683Z,14.57
2018-04-10T07:55:18.882Z,13.47
2018-04-10T07:57:51.670Z,14.80
2018-04-10T08:00:32.166Z,15.03
2018-04-10T08:03:01.842Z,16.10
2018-04-10T08:05:34.615Z,14.17
2018-04-10T08:08:03.631Z,15.43
2018-04-10T08:10:34.351Z,13.53
2018-04-10T08:13:02.367Z,15.03
2018-04-10T08:15:31.286Z,15.03
2018-04-10T08:18:03.495Z,15.70
2018-04-10T08:20:32.271Z,15.47
2018-04-10T08:23:02.682Z,15.93
2018-04-10T08:25:33.726Z,14.80
2018-04-10T08:28:02.630Z,15.87
2018-04-10T08:30:32.245Z,14.47
2018-04-10T08:33:01.050Z,14.43
2018-04-10T08:35:29.067Z,15.20
2018-04-10T08:37:58.510Z,14.37
2018-04-10T08:40:27.317Z,14.30
2018-04-10T08:42:56.269Z,11.47
2018-04-10T08:45:26.249Z,9.60
2018-04-10T08:48:04.040Z,8.70
2018-04-10T08:50:35.269Z,9.63
2018-04-10T08:53:07.188Z,9.67
2018-04-10T08:55:35.193Z,9.80
2018-04-10T08:58:04.122Z,8.93
2018-04-10T09:00:36.348Z,10.10
2018-04-10T09:03:09.272Z,9.30
2018-04-10T09:05:41.145Z,10.60
2018-04-10T09:08:12.881Z,9.87
2018-04-10T09:10:44.485Z,11.27
2018-04-10T09:13:16.320Z,9.07
2018-04-10T09:15:45.153Z,8.77
2018-04-10T09:18:13.161Z,8.83
2018-04-10T09:20:42.147Z,8.20
2018-04-10T09:23:15.880Z,9.00
2018-04-10T09:25:47.506Z,8.90
2018-04-10T09:28:16.440Z,8.33
2018-04-10T09:30:44.464Z,9.37
2018-04-10T09:33:12.472Z,8.73
2018-04-10T09:35:41.264Z,9.30
2018-04-10T09:38:13.398Z,8.87
2018-04-10T09:40:43.416Z,8.00
2018-04-10T09:43:11.421Z,8.43
2018-04-10T09:45:44.713Z,8.50
2018-04-10T09:48:19.366Z,9.60
2018-04-10T09:50:49.331Z,8.93
2018-04-10T09:53:17.347Z,10.33
2018-04-10T09:55:48.947Z,11.73
2018-04-10T09:58:18.863Z,10.67
2018-04-10T10:00:46.883Z,7.53
2018-04-10T10:03:14.919Z,6.70
2018-04-10T10:05:42.930Z,8.40
2018-04-10T10:08:10.941Z,6.90
2018-04-10T10:10:42.495Z,8.70
2018-04-10T10:13:23.023Z,8.30
2018-04-10T10:15:51.955Z,8.10
2018-04-10T10:18:21.043Z,8.07
2018-04-10T10:20:49.042Z,7.10
2018-04-10T10:23:19.754Z,7.40
2018-04-10T10:25:47.765Z,5.10
2018-04-10T10:28:21.322Z,5.30
2018-04-10T10:30:51.387Z,5.50
2018-04-10T10:33:19.398Z,5.03
2018-04-10T10:35:53.106Z,5.43
2018-04-10T10:38:21.118Z,4.67
2018-04-10T10:40:50.045Z,4.70
2018-04-10T10:43:18.061Z,4.60
2018-04-10T10:45:47.832Z,4.10
2018-04-10T10:48:22.253Z,4.50
2018-04-10T10:50:51.238Z,4.20
2018-04-10T10:53:20.149Z,3.87
2018-04-10T10:55:48.186Z,5.43
2018-04-10T10:58:18.314Z,4.50
2018-04-10T11:00:47.331Z,4.47
2018-04-10T11:03:15.334Z,4.00
2018-04-10T11:05:49.926Z,4.10
2018-04-10T11:08:21.665Z,4.00
2018-04-10T11:10:50.665Z,4.90
2018-04-10T11:13:22.213Z,4.27
2018-04-10T11:15:54.809Z,4.40
2018-04-10T11:18:22.814Z,4.30
2018-04-10T11:20:56.129Z,3.57
2018-04-10T11:23:24.133Z,4.17
2018-04-10T11:25:52.150Z,3.80
2018-04-10T11:28:20.166Z,3.83
2018-04-10T11:30:49.155Z,3.50
2018-04-10T11:33:20.863Z,3.70
2018-04-10T11:35:52.883Z,3.80
2018-04-10T11:38:26.712Z,3.17
2018-04-10T11:40:55.672Z,3.30
2018-04-10T11:43:23.692Z,3.77
2018-04-10T11:45:52.620Z,3.80
2018-04-10T11:48:23.320Z,3.50
2018-04-10T11:50:53.288Z,3.63
2018-04-10T11:53:31.860Z,3.90
2018-04-10T11:56:02.955Z,3.73
2018-04-10T11:58:31.927Z,3.30
2018-04-10T12:01:06.327Z,3.33
2018-04-10T12:03:35.232Z,3.50
2018-04-10T12:06:07.923Z,3.43
2018-04-10T12:08:43.567Z,3.67
2018-04-10T12:11:21.231Z,3.43
2018-04-10T12:13:49.231Z,4.13
2018-04-10T12:16:18.127Z,3.53
2018-04-10T12:18:58.954Z,3.23
2018-04-10T12:21:28.907Z,3.67
2018-04-10T12:23:56.922Z,4.00
2018-04-10T12:26:25.720Z,4.10
2018-04-10T12:28:53.742Z,3.83
2018-04-10T12:31:22.643Z,6.30
2018-04-10T12:33:50.682Z,6.20
2018-04-10T12:36:19.621Z,6.03
2018-04-10T12:38:48.390Z,7.13
2018-04-10T12:41:17.374Z,6.23
2018-04-10T12:43:46.386Z,7.10
2018-04-10T12:46:16.394Z,8.60
2018-04-10T12:48:44.410Z,8.20
2018-04-10T12:51:17.382Z,7.97
2018-04-10T12:53:46.342Z,8.60
2018-04-10T12:56:15.253Z,7.67
2018-04-10T12:58:44.033Z,7.03
2018-04-10T13:01:14.729Z,8.23
2018-04-10T13:03:42.733Z,4.90
2018-04-10T13:06:22.621Z,4.80
2018-04-10T13:08:53.397Z,15.83
2018-04-10T13:11:21.457Z,16.80
2018-04-10T13:13:49.635Z,14.90
2018-04-10T13:16:17.621Z,15.60
2018-04-10T13:18:45.585Z,16.40
2018-04-10T13:21:14.511Z,19.60
2018-04-10T13:23:42.524Z,18.90
2018-04-10T13:26:11.537Z,18.67
2018-04-10T13:28:39.589Z,16.83
2018-04-10T13:31:08.368Z,18.83
2018-04-10T13:33:36.392Z,19.50
2018-04-10T13:36:08.009Z,20.97
2018-04-10T13:38:36.024Z,19.70
2018-04-10T13:41:12.092Z,19.73
2018-04-10T13:43:53.548Z,19.87
2018-04-10T13:46:22.361Z,17.83
2018-04-10T13:48:52.349Z,18.97
2018-04-10T13:51:21.137Z,16.90
2018-04-10T13:53:51.837Z,18.30
2018-04-10T13:56:20.757Z,16.40
2018-04-10T13:58:52.709Z,18.00
2018-04-10T14:01:20.741Z,18.60
2018-04-10T14:03:58.660Z,19.53
2018-04-10T14:06:28.669Z,17.57
2018-04-10T14:08:57.665Z,16.57
2018-04-10T14:11:25.685Z,18.47
2018-04-10T14:13:53.701Z,18.80
2018-04-10T14:16:21.941Z,18.60
2018-04-10T14:18:55.508Z,18.57
2018-04-10T14:21:26.193Z,18.30
2018-04-10T14:23:57.873Z,18.20
2018-04-10T14:26:25.921Z,17.77
2018-04-10T14:29:02.085Z,17.20
2018-04-10T14:31:31.108Z,18.10
2018-04-10T14:33:59.130Z,17.23
2018-04-10T14:36:30.506Z,18.03
2018-04-10T14:39:03.150Z,18.00
2018-04-10T14:41:31.166Z,19.40
2018-04-10T14:44:00.098Z,18.83
2018-04-10T14:46:32.538Z,19.40
2018-04-10T14:49:04.284Z,18.87
2018-04-10T14:51:34.306Z,19.10
2018-04-10T14:54:07.693Z,17.93
2018-04-10T14:56:37.653Z,19.00
2018-04-10T14:59:06.562Z,19.97
2018-04-10T15:01:37.949Z,18.80
2018-04-10T15:04:06.933Z,18.67
2018-04-10T15:06:34.953Z,21.20
2018-04-10T15:09:05.987Z,20.70
2018-04-10T15:11:35.808Z,22.40
2018-04-10T15:14:05.376Z,23.03
2018-04-10T15:16:34.276Z,22.27
2018-04-10T15:19:08.944Z,21.80
2018-04-10T15:21:36.968Z,21.13
2018-04-10T15:24:10.761Z,21.23
2018-04-10T15:26:38.777Z,22.40
2018-04-10T15:29:07.701Z,21.53
2018-04-10T15:31:37.044Z,13.57
2018-04-10T15:34:05.828Z,20.10
2018-04-10T15:36:33.840Z,20.77
2018-04-10T15:39:08.460Z,8.80
2018-04-10T15:41:42.160Z,7.27
2018-04-10T15:44:11.184Z,16.37
2018-04-10T15:46:46.696Z,9.60
2018-04-10T15:49:15.500Z,5.67
2018-04-10T15:51:43.507Z,6.07
2018-04-10T15:54:12.431Z,5.17
2018-04-10T15:56:40.451Z,5.73
2018-04-10T15:59:11.617Z,5.23
2018-04-10T16:01:50.011Z,5.67
2018-04-10T16:04:18.032Z,5.63
2018-04-10T16:06:50.591Z,6.47
2018-04-10T16:09:25.076Z,5.60
2018-04-10T16:12:07.632Z,5.83
2018-04-10T16:14:36.552Z,6.27
2018-04-10T16:17:04.664Z,6.03
2018-04-10T16:19:33.632Z,8.73
2018-04-10T16:22:05.046Z,6.13
2018-04-10T16:24:33.072Z,6.00
2018-04-10T16:27:01.568Z,6.40
2018-04-10T16:29:32.259Z,5.90
2018-04-10T16:32:00.295Z,6.20
2018-04-10T16:34:29.231Z,5.93
2018-04-10T16:36:57.247Z,6.20
2018-04-10T16:39:29.890Z,7.10
2018-04-10T16:41:59.901Z,6.90
2018-04-10T16:44:33.119Z,7.53
2018-04-10T16:47:02.792Z,8.13
2018-04-10T16:49:33.762Z,8.63
2018-04-10T16:52:03.531Z,11.50
2018-04-10T16:54:33.455Z,11.57
2018-04-10T16:57:01.496Z,10.10
2018-04-10T16:59:31.036Z,12.30
2018-04-10T17:02:02.287Z,16.07
2018-04-10T17:04:30.319Z,15.63
2018-04-10T17:06:59.764Z,17.47
2018-04-10T17:09:33.439Z,15.23
2018-04-10T17:12:01.455Z,15.60
2018-04-10T17:14:32.159Z,14.80
2018-04-10T17:17:00.331Z,14.07
2018-04-10T17:19:28.391Z,16.60
2018-04-10T17:21:56.419Z,15.57
2018-04-10T17:24:24.436Z,15.60
2018-04-10T17:26:53.427Z,15.13
2018-04-10T17:29:23.207Z,15.50
2018-04-10T17:31:51.267Z,14.83
2018-04-10T17:34:19.287Z,16.13
2018-04-10T17:36:48.299Z,18.50
2018-04-10T17:39:18.096Z,15.83
2018-04-10T17:41:46.136Z,16.20
2018-04-10T17:44:15.371Z,17.40
2018-04-10T17:46:43.435Z,17.23
2018-04-10T17:49:13.359Z,15.73
2018-04-10T17:51:42.251Z,17.30
2018-04-10T17:54:11.075Z,16.60
2018-04-10T17:56:39.999Z,17.80
2018-04-10T17:59:08.035Z,16.07
2018-04-10T18:01:36.071Z,15.60
2018-04-10T18:04:09.542Z,16.03
2018-04-10T18:06:42.330Z,16.33
2018-04-10T18:09:15.003Z,15.53
2018-04-10T18:11:43.038Z,17.30
2018-04-10T18:14:12.062Z,16.07
2018-04-10T18:16:40.103Z,16.40
2018-04-10T18:19:09.387Z,14.17
2018-04-10T18:21:39.315Z,14.50
2018-04-10T18:24:08.247Z,17.00
2018-04-10T18:26:37.362Z,16.17
2018-04-10T18:29:11.370Z,15.67
2018-04-10T18:31:40.395Z,17.83
2018-04-10T18:34:12.271Z,15.67
2018-04-10T18:36:42.383Z,15.50
2018-04-10T18:39:17.411Z,13.77
2018-04-10T18:41:53.619Z,14.13
2018-04-10T18:44:26.782Z,13.90
2018-04-10T18:46:54.843Z,13.90
2018-04-10T18:49:27.403Z,13.57
2018-04-10T18:52:08.787Z,13.63
2018-04-10T18:54:37.731Z,14.20
2018-04-10T18:57:07.742Z,14.77
2018-04-10T18:59:45.950Z,14.97
2018-04-10T19:02:13.979Z,14.27
2018-04-10T19:04:47.583Z,15.23
2018-04-10T19:07:17.531Z,14.90
2018-04-10T19:09:45.539Z,14.50
2018-04-10T19:12:22.288Z,13.17
2018-04-10T19:15:02.195Z,12.97
2018-04-10T19:17:39.870Z,14.60
2018-04-10T19:20:07.898Z,13.50
2018-04-10T19:22:41.701Z,13.97
2018-04-10T19:25:11.722Z,14.40
2018-04-10T19:27:39.758Z,14.70
2018-04-10T19:30:09.723Z,15.63
2018-04-10T19:32:48.506Z,15.80
2018-04-10T19:35:17.582Z,15.90
2018-04-10T19:37:55.994Z,15.87
2018-04-10T19:40:36.373Z,15.37
2018-04-10T19:43:27.661Z,19.77
2018-04-10T19:45:55.753Z,19.37
2018-04-10T19:48:31.910Z,19.40
2018-04-10T19:50:59.941Z,17.40
2018-04-10T19:53:29.785Z,17.07
2018-04-10T19:55:57.854Z,16.87
2018-04-10T19:58:27.910Z,18.10
2018-04-10T20:00:57.930Z,18.70
2018-04-10T20:03:26.926Z,19.40
2018-04-10T20:05:54.986Z,19.73
2018-04-10T20:08:27.587Z,20.53
2018-04-10T20:11:05.777Z,21.30
2018-04-10T20:13:33.826Z,22.00
2018-04-10T20:16:03.882Z,23.90
2018-04-10T20:18:33.349Z,22.63
2018-04-10T20:21:03.405Z,21.97
2018-04-10T20:23:34.149Z,21.83
2018-04-10T20:26:07.741Z,16.57
2018-04-10T20:28:36.005Z,13.63
2018-04-10T20:31:12.125Z,12.25
2018-04-10T20:33:40.194Z,8.52
2018-04-10T20:36:13.194Z,6.40
2018-04-10T20:38:46.054Z,7.25
2018-04-10T20:41:16.786Z,5.32
2018-04-10T20:43:46.750Z,5.60
2018-04-10T20:46:31.426Z,5.45
2018-04-10T20:49:00.233Z,5.62
2018-04-10T20:51:28.606Z,5.40
2018-04-10T20:53:56.690Z,6.18
2018-04-10T20:56:30.637Z,5.72
2018-04-10T20:58:58.674Z,5.43
2018-04-10T21:01:26.673Z,5.32
2018-04-10T21:03:54.697Z,5.05
2018-04-10T21:06:27.734Z,5.62
2018-04-10T21:08:55.778Z,6.25
2018-04-10T21:11:25.930Z,6.62
2018-04-10T21:14:06.348Z,5.90
2018-04-10T21:16:37.111Z,5.93
2018-04-10T21:19:10.872Z,4.80
2018-04-10T21:21:39.843Z,5.45
2018-04-10T21:24:24.319Z,6.10
2018-04-10T21:27:02.155Z,5.12
2018-04-10T21:29:32.099Z,5.55
2018-04-10T21:32:02.107Z,4.85
2018-04-10T21:34:30.123Z,5.20
2018-04-10T21:37:00.095Z,5.15
2018-04-10T21:39:32.043Z,5.03
2018-04-10T21:42:10.447Z,5.20
2018-04-10T21:44:40.379Z,5.25
2018-04-10T21:47:24.778Z,4.90
2018-04-10T21:49:52.787Z,5.20
2018-04-10T21:52:28.535Z,6.28
2018-04-10T21:55:00.698Z,6.25
2018-04-10T21:57:29.735Z,6.53
2018-04-10T22:00:05.934Z,7.45
2018-04-10T22:05:30.614Z,7.57
2018-04-10T22:08:22.163Z,8.35
2018-04-10T22:10:58.946Z,7.75
2018-04-10T22:13:31.650Z,9.45
2018-04-10T22:15:59.664Z,8.98
2018-04-10T22:18:28.443Z,9.57
2018-04-10T22:21:04.451Z,9.02
2018-04-10T22:23:36.671Z,8.13
2018-04-10T22:26:07.406Z,9.52
2018-04-10T22:28:36.190Z,8.43
2018-04-10T22:31:18.403Z,8.68
2018-04-10T22:33:47.171Z,9.82
2018-04-10T22:36:15.199Z,9.25
2018-04-10T22:38:48.595Z,10.13
2018-04-10T22:41:24.222Z,8.85
2018-04-10T22:43:58.372Z,9.40
2018-04-10T22:49:21.555Z,10.02
2018-04-10T22:51:52.347Z,9.07
2018-04-10T22:54:31.295Z,10.43
2018-04-10T22:56:59.311Z,10.45
2018-04-10T22:59:28.352Z,11.00
2018-04-10T23:01:57.347Z,10.90
2018-04-10T23:04:25.388Z,10.45
2018-04-10T23:06:56.152Z,11.52
2018-04-10T23:09:32.617Z,11.12
2018-04-10T23:12:01.486Z,11.18
2018-04-10T23:14:31.421Z,11.32
2018-04-10T23:17:15.937Z,11.27
2018-04-10T23:19:56.508Z,11.32
2018-04-10T23:22:26.526Z,10.45
2018-04-10T23:24:57.616Z,11.18
2018-04-10T23:27:31.226Z,10.93
2018-04-10T23:30:01.662Z,10.75
2018-04-10T23:32:31.664Z,10.77
2018-04-10T23:35:04.973Z,10.23
2018-04-10T23:37:33.015Z,9.88
2018-04-10T23:40:09.545Z,10.88
2018-04-10T23:42:39.521Z,11.05
2018-04-10T23:45:07.554Z,10.05
2018-04-10T23:47:36.599Z,9.85
2018-04-10T23:50:21.710Z,9.70
2018-04-10T23:52:49.731Z,10.60
2018-04-10T23:55:17.762Z,9.63
2018-04-10T23:57:46.731Z,10.65
